Terminal Aerodrome Forecast
Issued by NWS Cleveland, OH

Home | Current Version | Previous Version | Graphics & Text | Print | Product List | Glossary Off
Versions: 1 2 3 4 5 6 7 8 9 10 11 12 13 14 15 16 17 18 19

587
FTUS41 KCLE 221201 RRA
TAFCAK
TAF
KCAK 221201Z 2212/2312 24010KT P6SM BKN050
      TEMPO 2212/2216 BKN025
     FM221900 27005KT P6SM VCTS BKN035CB
      TEMPO 2221/2223 2SM -TSRA OVC025CB
     FM230300 33007KT P6SM BKN020=

USA.gov is the U.S. government's official web portal to all federal, state and local government web resources and services.